Time;durP1;ratioP1;P1;durP2;ratioP2;P2;SDS_P1;SDS_P2;PMS_P1;PMS_P2;Temp;Humidity;BMP_temperature;BMP_pressure;BME280_temperature;BME280_humidity;BME280_pressure;Samples;Min_cycle;Max_cycle;Signal;HPM_P1;HPM_P2
2023/04/18 00:01:23;;;;;;;9.45;7.13;;;;;;;8.65;63.09;102488.28;5150111;27;20123;-72
2023/04/18 00:03:51;;;;;;;11.38;7.55;;;;;;;8.60;63.28;102495.31;5141681;27;20542;-72
2023/04/18 00:06:20;;;;;;;12.85;7.50;;;;;;;8.59;62.96;102497.06;5148202;27;20043;-71
2023/04/18 00:08:48;;;;;;;14.27;7.50;;;;;;;8.53;63.27;102487.41;5146709;27;20046;-71
2023/04/18 00:11:15;;;;;;;13.27;7.72;;;;;;;8.48;63.40;102489.13;5127226;27;20039;-71
2023/04/18 00:13:43;;;;;;;12.07;6.95;;;;;;;8.45;63.57;102486.44;5137007;27;20040;-71
2023/04/18 00:16:12;;;;;;;11.25;7.47;;;;;;;8.44;63.47;102487.34;5129013;27;20455;-71
2023/04/18 00:18:39;;;;;;;9.95;7.68;;;;;;;8.38;63.39;102485.53;5111977;27;21108;-71
2023/04/18 00:21:07;;;;;;;10.10;7.35;;;;;;;8.32;63.51;102487.25;5146294;27;20043;-71
2023/04/18 00:23:34;;;;;;;11.15;7.55;;;;;;;8.28;63.18;102488.09;5150882;27;20040;-71
2023/04/18 00:26:02;;;;;;;12.40;8.27;;;;;;;8.23;63.30;102477.56;5149830;27;20052;-71
2023/04/18 00:28:29;;;;;;;12.98;7.95;;;;;;;8.17;63.46;102491.53;5150547;27;20039;-71
2023/04/18 00:30:56;;;;;;;12.07;8.68;;;;;;;8.14;63.27;102483.63;5146658;27;20054;-71
2023/04/18 00:33:23;;;;;;;11.52;7.70;;;;;;;8.12;63.21;102477.50;5124668;27;20070;-71
2023/04/18 00:35:52;;;;;;;12.77;7.97;;;;;;;8.04;63.90;102480.09;5126604;27;20614;-71
2023/04/18 00:38:19;;;;;;;13.02;8.10;;;;;;;7.99;64.01;102480.91;5130868;27;20044;-71
2023/04/18 00:40:47;;;;;;;11.70;7.80;;;;;;;7.92;64.28;102480.00;5129308;27;20043;-71
2023/04/18 00:43:15;;;;;;;12.93;8.13;;;;;;;7.89;64.27;102479.97;5151192;27;20279;-72
2023/04/18 00:45:43;;;;;;;11.82;8.18;;;;;;;7.82;64.43;102476.44;5104154;27;20036;-72
2023/04/18 00:48:10;;;;;;;13.75;7.88;;;;;;;7.76;64.77;102481.63;5136759;27;20048;-72
2023/04/18 00:50:40;;;;;;;11.88;8.35;;;;;;;7.71;64.95;102475.47;5118912;27;20028;-72
2023/04/18 00:53:09;;;;;;;11.25;7.78;;;;;;;7.68;65.12;102473.69;5119663;27;20039;-72
2023/04/18 00:55:38;;;;;;;11.13;7.78;;;;;;;7.64;65.07;102471.91;5144490;27;20474;-71
2023/04/18 00:58:05;;;;;;;12.75;7.80;;;;;;;7.62;64.86;102478.91;5113390;27;20681;-71
2023/04/18 01:00:33;;;;;;;12.98;7.88;;;;;;;7.55;65.05;102472.72;5103190;27;20035;-71
2023/04/18 01:03:00;;;;;;;11.73;7.95;;;;;;;7.51;65.07;102478.81;5144990;27;20085;-71
2023/04/18 01:05:27;;;;;;;11.18;7.80;;;;;;;7.44;65.20;102480.50;5112955;27;20067;-71
2023/04/18 01:07:59;;;;;;;12.77;8.13;;;;;;;7.38;65.18;102477.81;5130706;27;20043;-72
2023/04/18 01:10:28;;;;;;;12.20;8.05;;;;;;;7.31;65.46;102476.00;5130754;27;20082;-72
2023/04/18 01:13:22;;;;;;;11.73;7.57;;;;;;;7.28;65.67;102475.97;5120948;27;20031;-70
2023/04/18 01:15:50;;;;;;;14.77;8.20;;;;;;;7.23;65.78;102470.66;5132655;27;20047;-70
2023/04/18 01:18:17;;;;;;;14.38;8.38;;;;;;;7.13;65.92;102472.34;5145869;27;20063;-70
2023/04/18 01:20:53;;;;;;;14.05;8.05;;;;;;;7.07;66.32;102480.13;5127541;27;20573;-70
2023/04/18 01:23:20;;;;;;;12.05;7.97;;;;;;;7.03;66.79;102474.84;5126213;27;20494;-71
2023/04/18 01:25:50;;;;;;;11.40;8.57;;;;;;;6.97;66.86;102473.91;5149250;27;20043;-69
2023/04/18 01:28:22;;;;;;;10.60;7.68;;;;;;;6.92;66.75;102470.34;5129323;27;20050;-70
2023/04/18 01:30:49;;;;;;;11.40;8.40;;;;;;;6.84;67.52;102459.81;5129152;27;20111;-70
2023/04/18 01:33:16;;;;;;;16.33;8.38;;;;;;;6.81;67.55;102469.38;5134367;27;20116;-70
2023/04/18 01:35:46;;;;;;;13.95;8.25;;;;;;;6.79;67.73;102471.09;5141284;27;20854;-70
2023/04/18 01:38:13;;;;;;;11.38;8.68;;;;;;;6.76;67.77;102466.72;5147075;27;20035;-71
2023/04/18 01:40:40;;;;;;;13.43;8.77;;;;;;;6.72;67.96;102461.38;5145257;27;20049;-70
2023/04/18 01:43:07;;;;;;;12.82;7.82;;;;;;;6.70;68.32;102464.00;5123449;27;20052;-70
2023/04/18 01:45:36;;;;;;;12.95;8.63;;;;;;;6.68;67.85;102465.72;5122227;27;20085;-72
2023/04/18 01:48:04;;;;;;;11.35;8.48;;;;;;;6.67;68.19;102459.59;5106562;27;20058;-71
2023/04/18 01:50:32;;;;;;;11.15;8.63;;;;;;;6.66;67.99;102454.34;5122975;27;20141;-70
2023/04/18 01:52:59;;;;;;;13.77;8.07;;;;;;;6.59;68.31;102469.13;5122183;27;20048;-71
2023/04/18 01:55:26;;;;;;;12.15;8.85;;;;;;;6.52;68.48;102468.16;5113989;27;20048;-71
2023/04/18 01:57:54;;;;;;;12.82;8.52;;;;;;;6.49;68.53;102464.63;5126632;27;20503;-70
2023/04/18 02:00:21;;;;;;;10.68;8.10;;;;;;;6.43;68.56;102457.56;5124396;27;20047;-70
2023/04/18 02:02:49;;;;;;;13.20;8.52;;;;;;;6.43;68.52;102459.28;5116174;27;20119;-70
2023/04/18 02:05:16;;;;;;;13.57;8.88;;;;;;;6.35;68.65;102453.97;5111741;27;20047;-71
2023/04/18 02:07:44;;;;;;;11.40;8.27;;;;;;;6.33;68.97;102463.53;5122621;27;20044;-71
2023/04/18 02:10:11;;;;;;;11.75;9.10;;;;;;;6.31;68.99;102457.41;5122928;27;20132;-72
2023/04/18 02:12:38;;;;;;;11.13;8.85;;;;;;;6.24;69.00;102456.44;5126955;27;20476;-71
2023/04/18 02:15:06;;;;;;;13.27;8.70;;;;;;;6.21;68.95;102453.75;5121104;27;20089;-71
2023/04/18 02:17:35;;;;;;;13.50;8.73;;;;;;;6.19;69.22;102453.75;5107335;28;20040;-71
2023/04/18 02:20:03;;;;;;;14.45;9.52;;;;;;;6.18;69.31;102451.97;5113771;27;20043;-71
2023/04/18 02:22:30;;;;;;;12.27;8.93;;;;;;;6.13;69.38;102447.53;5126293;27;20059;-71
2023/04/18 02:24:59;;;;;;;12.57;8.90;;;;;;;6.12;69.56;102443.16;5122614;27;20127;-71
2023/04/18 02:27:26;;;;;;;12.85;8.35;;;;;;;6.11;69.85;102455.38;5122037;27;20059;-71
2023/04/18 02:29:56;;;;;;;14.70;8.35;;;;;;;6.08;69.73;102449.22;5121162;27;20562;-70
2023/04/18 02:32:23;;;;;;;13.45;8.85;;;;;;;6.06;69.86;102452.69;5106412;27;20352;-71
2023/04/18 02:34:50;;;;;;;13.27;8.68;;;;;;;6.01;70.05;102446.50;5121512;27;20152;-71
2023/04/18 02:37:18;;;;;;;11.70;8.88;;;;;;;5.99;70.07;102439.47;5095818;27;20632;-72
2023/04/18 02:39:45;;;;;;;13.07;8.77;;;;;;;5.99;70.39;102455.16;5126530;27;20043;-70
2023/04/18 02:42:12;;;;;;;11.73;8.38;;;;;;;5.95;70.46;102451.63;5115427;27;20821;-71
2023/04/18 02:44:39;;;;;;;15.43;8.65;;;;;;;5.92;70.74;102448.97;5126359;27;20051;-71
2023/04/18 02:47:06;;;;;;;11.50;8.43;;;;;;;5.91;70.83;102444.56;5121141;27;20042;-71
2023/04/18 02:49:37;;;;;;;14.02;9.48;;;;;;;5.87;70.77;102446.28;5106857;27;20040;-71
2023/04/18 02:52:04;;;;;;;12.52;9.68;;;;;;;5.85;70.96;102452.34;5120624;27;20040;-70
2023/04/18 02:54:31;;;;;;;15.45;9.48;;;;;;;5.80;71.10;102446.19;5125811;27;20039;-70
2023/04/18 02:57:04;;;;;;;13.43;9.10;;;;;;;5.77;71.06;102454.84;5122166;27;20127;-70
2023/04/18 02:59:52;;;;;;;13.32;9.07;;;;;;;5.78;71.72;102445.28;5105878;28;20049;-70
2023/04/18 03:02:57;;;;;;;12.88;9.23;;;;;;;5.76;71.56;102440.00;5101238;27;20496;-70
2023/04/18 03:05:34;;;;;;;13.05;9.48;;;;;;;5.73;71.67;102439.97;5122157;27;20115;-70
2023/04/18 03:08:03;;;;;;;11.80;8.75;;;;;;;5.73;71.73;102439.97;5114563;27;20048;-71
2023/04/18 03:10:30;;;;;;;11.45;8.50;;;;;;;5.75;71.65;102446.06;5137515;27;20105;-70
2023/04/18 03:12:58;;;;;;;10.68;8.38;;;;;;;5.73;71.96;102443.44;5126658;27;20082;-70
2023/04/18 03:15:27;;;;;;;13.85;9.30;;;;;;;5.70;71.86;102442.53;5122886;27;20043;-70
2023/04/18 03:17:54;;;;;;;13.45;9.73;;;;;;;5.62;72.11;102446.75;5119736;27;20176;-70
2023/04/18 03:20:22;;;;;;;13.30;9.15;;;;;;;5.60;72.23;102447.63;5126452;27;20046;-71
2023/04/18 03:22:51;;;;;;;11.20;8.80;;;;;;;5.60;72.51;102446.72;5129316;27;20056;-71
2023/04/18 03:25:23;;;;;;;11.10;8.70;;;;;;;5.59;72.32;102453.69;5115614;27;20118;-71
2023/04/18 03:27:52;;;;;;;13.63;9.02;;;;;;;5.56;72.39;102448.41;5122842;27;20660;-70
2023/04/18 03:30:21;;;;;;;12.32;8.88;;;;;;;5.52;72.50;102444.00;5118988;27;20031;-70
2023/04/18 03:32:54;;;;;;;13.30;9.18;;;;;;;5.47;72.54;102452.63;5127061;27;20046;-70
2023/04/18 03:35:22;;;;;;;12.40;8.48;;;;;;;5.46;72.61;102438.66;5122302;27;20040;-71
2023/04/18 03:37:49;;;;;;;10.30;8.50;;;;;;;5.46;72.98;102456.09;5128624;27;20035;-70
2023/04/18 03:40:25;;;;;;;10.38;9.05;;;;;;;5.39;72.93;102449.88;5128089;27;20040;-69
2023/04/18 03:42:58;;;;;;;14.30;9.63;;;;;;;5.33;72.82;102449.78;5123119;27;23053;-70
2023/04/18 03:45:25;;;;;;;12.43;9.35;;;;;;;5.34;73.24;102454.16;5125683;27;20093;-70
2023/04/18 03:47:54;;;;;;;12.52;9.13;;;;;;;5.33;73.28;102450.66;5091903;28;20265;-70
2023/04/18 03:50:23;;;;;;;13.13;9.32;;;;;;;5.33;73.31;102452.41;5113348;27;20079;-70
2023/04/18 03:52:51;;;;;;;12.13;8.95;;;;;;;5.33;73.40;102449.78;5110835;27;20518;-70
2023/04/18 03:55:19;;;;;;;12.70;9.40;;;;;;;5.29;73.42;102444.47;5107940;28;20040;-70
2023/04/18 03:57:46;;;;;;;10.48;8.27;;;;;;;5.33;73.50;102450.66;5118394;27;20130;-69
2023/04/18 04:00:21;;;;;;;11.80;8.55;;;;;;;5.30;73.42;102453.19;5108333;28;20093;-69
2023/04/18 04:02:58;;;;;;;12.73;9.00;;;;;;;5.28;73.66;102455.78;5124329;27;20040;-70
2023/04/18 04:05:26;;;;;;;11.10;8.25;;;;;;;5.27;73.60;102459.25;5107270;27;20038;-70
2023/04/18 04:07:54;;;;;;;10.27;8.75;;;;;;;5.27;73.93;102453.16;5115353;27;20036;-70
2023/04/18 04:10:22;;;;;;;10.80;7.90;;;;;;;5.25;73.61;102447.03;5109801;27;20035;-70
2023/04/18 04:12:50;;;;;;;10.93;8.18;;;;;;;5.24;73.59;102448.75;5118231;27;20046;-71
2023/04/18 04:15:17;;;;;;;9.77;8.13;;;;;;;5.24;73.45;102451.34;5120843;27;20046;-70
2023/04/18 04:18:00;;;;;;;11.18;7.88;;;;;;;5.28;73.38;102452.31;5124459;27;20496;-71
2023/04/18 04:20:27;;;;;;;12.68;7.85;;;;;;;5.29;73.45;102454.94;5127383;27;20040;-71
2023/04/18 04:23:02;;;;;;;11.55;8.45;;;;;;;5.27;73.39;102454.03;5126580;27;20040;-72
2023/04/18 04:25:32;;;;;;;10.98;7.78;;;;;;;5.27;73.35;102458.41;5129091;27;20866;-71
2023/04/18 04:28:05;;;;;;;11.00;8.35;;;;;;;5.27;73.02;102458.41;5108163;27;20047;-72
2023/04/18 04:30:40;;;;;;;9.90;8.00;;;;;;;5.28;73.29;102453.19;5125915;27;20047;-71
2023/04/18 04:33:07;;;;;;;10.07;8.02;;;;;;;5.27;73.20;102458.41;5111971;27;20039;-74
2023/04/18 04:35:35;;;;;;;10.45;8.43;;;;;;;5.28;73.17;102450.56;5132746;27;20036;-70
2023/04/18 04:38:04;;;;;;;11.35;8.20;;;;;;;5.29;73.09;102467.16;5117819;27;21030;-69
2023/04/18 04:40:39;;;;;;;9.80;8.00;;;;;;;5.31;73.16;102454.09;5133646;27;20820;-70
2023/04/18 04:43:11;;;;;;;10.90;8.20;;;;;;;5.36;73.03;102463.78;5124353;27;20047;-70
2023/04/18 04:45:41;;;;;;;11.38;8.45;;;;;;;5.35;73.18;102461.13;5132996;27;20506;-76
2023/04/18 04:48:09;;;;;;;12.52;8.68;;;;;;;5.42;74.16;102457.78;5129132;27;20883;-70
2023/04/18 04:50:39;;;;;;;12.43;8.50;;;;;;;5.55;74.40;102461.47;5132746;27;20576;-69
2023/04/18 04:53:07;;;;;;;12.57;8.32;;;;;;;5.64;73.91;102456.38;5135507;27;20041;-69
2023/04/18 04:55:35;;;;;;;11.30;8.48;;;;;;;5.67;72.43;102466.03;5128609;27;20059;-70
2023/04/18 04:58:04;;;;;;;13.70;8.85;;;;;;;5.65;72.08;102470.34;5135122;27;20032;-70
2023/04/18 05:00:43;;;;;;;11.60;8.88;;;;;;;5.66;71.86;102474.72;5130277;27;20042;-70
2023/04/18 05:03:14;;;;;;;11.95;8.73;;;;;;;5.67;71.87;102476.47;5135335;27;20048;-71
2023/04/18 05:05:47;;;;;;;12.73;9.13;;;;;;;5.68;71.87;102471.28;5115044;27;20166;-71
2023/04/18 05:08:14;;;;;;;11.48;9.10;;;;;;;5.71;71.71;102475.69;5133762;27;20035;-71
2023/04/18 05:10:42;;;;;;;12.35;8.77;;;;;;;5.78;71.68;102474.06;5133985;27;20039;-71
2023/04/18 05:13:09;;;;;;;11.52;8.98;;;;;;;5.85;71.75;102468.06;5129952;27;20046;-70
2023/04/18 05:15:36;;;;;;;12.52;8.90;;;;;;;5.91;71.55;102473.38;5116561;27;20104;-70
2023/04/18 05:18:03;;;;;;;13.57;8.68;;;;;;;5.93;71.52;102476.03;5122834;27;20075;-70
2023/04/18 05:20:30;;;;;;;12.27;8.65;;;;;;;5.95;71.54;102477.81;5125109;27;20073;-70
2023/04/18 05:22:58;;;;;;;12.77;9.40;;;;;;;5.97;71.93;102472.59;5124047;27;20051;-70
2023/04/18 05:25:30;;;;;;;11.95;8.65;;;;;;;6.07;71.62;102482.38;5108818;27;20895;-70
2023/04/18 05:28:03;;;;;;;13.48;9.23;;;;;;;6.09;72.14;102485.91;5113756;27;20896;-69
2023/04/18 05:30:30;;;;;;;12.32;8.82;;;;;;;6.17;72.02;102488.63;5113036;27;20694;-69
2023/04/18 05:32:57;;;;;;;11.73;9.45;;;;;;;6.19;72.14;102487.78;5117019;27;20044;-69
2023/04/18 05:35:25;;;;;;;11.02;9.00;;;;;;;6.33;71.73;102484.50;5126539;27;20659;-68
2023/04/18 05:37:52;;;;;;;11.95;9.13;;;;;;;6.35;71.91;102486.28;5120024;27;20032;-69
2023/04/18 05:40:19;;;;;;;11.25;8.60;;;;;;;6.42;71.85;102492.47;5122847;27;20076;-69
2023/04/18 05:42:46;;;;;;;11.40;8.75;;;;;;;6.50;71.44;102488.22;5126411;27;20043;-69
2023/04/18 05:45:13;;;;;;;12.70;9.10;;;;;;;6.52;71.52;102498.69;5127764;27;20555;-68
2023/04/18 05:47:40;;;;;;;11.75;8.13;;;;;;;6.58;71.72;102490.94;5134397;27;20039;-68
2023/04/18 05:50:08;;;;;;;10.13;8.10;;;;;;;6.66;71.30;102498.91;5113550;27;20048;-69
2023/04/18 05:52:37;;;;;;;11.48;8.57;;;;;;;6.74;71.10;102497.25;5146407;27;20047;-69
2023/04/18 05:55:06;;;;;;;10.38;7.70;;;;;;;6.78;71.38;102499.03;5140138;27;20604;-69
2023/04/18 05:57:32;;;;;;;11.63;8.50;;;;;;;6.82;71.17;102503.47;5109200;27;20047;-69
2023/04/18 05:59:59;;;;;;;12.35;8.43;;;;;;;6.84;71.09;102507.00;5133015;27;20027;-69
2023/04/18 06:02:26;;;;;;;9.88;8.10;;;;;;;6.89;71.12;102508.78;5124225;27;20064;-69
2023/04/18 06:04:55;;;;;;;13.38;8.85;;;;;;;6.99;70.78;102510.63;5129929;27;20035;-69
2023/04/18 06:07:24;;;;;;;11.57;9.15;;;;;;;7.02;70.65;102510.69;5122849;27;20040;-69
2023/04/18 06:09:52;;;;;;;12.05;7.88;;;;;;;7.04;70.91;102516.81;5113362;27;20042;-68
2023/04/18 06:12:19;;;;;;;11.13;8.40;;;;;;;7.12;70.55;102511.69;5144653;27;20039;-68
2023/04/18 06:14:48;;;;;;;10.07;7.80;;;;;;;7.05;71.17;102508.09;5123641;27;20116;-69
2023/04/18 06:17:15;;;;;;;12.52;9.20;;;;;;;7.10;71.15;102503.78;5149596;27;20043;-68
2023/04/18 06:19:42;;;;;;;13.40;7.85;;;;;;;7.10;71.18;102508.16;5149134;27;20031;-68
2023/04/18 06:22:09;;;;;;;10.80;8.77;;;;;;;7.10;71.40;102519.50;5128517;27;20035;-68
2023/04/18 06:24:36;;;;;;;10.32;7.80;;;;;;;7.15;71.41;102517.84;5146552;27;20513;-69
2023/04/18 06:27:04;;;;;;;12.10;7.18;;;;;;;7.22;71.11;102517.88;5138873;27;20038;-69
2023/04/18 06:29:32;;;;;;;10.70;7.80;;;;;;;7.25;71.10;102518.78;5134557;27;20134;-69
2023/04/18 06:32:02;;;;;;;13.00;8.10;;;;;;;7.27;70.93;102524.06;5146301;27;20454;-70
2023/04/18 06:34:29;;;;;;;11.45;8.05;;;;;;;7.28;71.28;102521.47;5147221;27;20096;-69
2023/04/18 06:36:56;;;;;;;10.48;7.30;;;;;;;7.37;70.91;102518.06;5142406;27;20042;-69
2023/04/18 06:39:23;;;;;;;9.57;7.13;;;;;;;7.43;70.96;102517.22;5127319;27;20040;-70
2023/04/18 06:41:50;;;;;;;10.48;7.43;;;;;;;7.59;70.99;102528.72;5128609;27;20085;-70
2023/04/18 06:44:26;;;;;;;8.38;7.03;;;;;;;7.75;70.40;102529.75;5128144;27;20055;-70
2023/04/18 06:46:54;;;;;;;9.65;6.95;;;;;;;7.88;70.17;102528.13;5128789;27;20093;-69
2023/04/18 06:49:21;;;;;;;9.38;7.32;;;;;;;8.03;69.78;102527.38;5129993;27;20045;-70
2023/04/18 06:51:52;;;;;;;10.88;7.50;;;;;;;8.13;69.92;102526.56;5146283;27;20044;-70
2023/04/18 06:54:20;;;;;;;8.32;7.20;;;;;;;8.30;69.54;102528.41;5129625;27;20050;-70
2023/04/18 06:56:47;;;;;;;9.80;7.20;;;;;;;8.41;69.02;102526.72;5148640;27;20069;-70
2023/04/18 06:59:14;;;;;;;8.88;6.97;;;;;;;8.49;68.74;102527.69;5145796;27;20553;-71
2023/04/18 07:01:41;;;;;;;9.18;6.70;;;;;;;8.49;68.74;102538.19;5148778;27;20027;-70
2023/04/18 07:04:08;;;;;;;8.82;7.03;;;;;;;8.57;68.53;102534.72;5129766;27;20102;-70
2023/04/18 07:06:36;;;;;;;8.85;6.68;;;;;;;8.51;68.86;102528.56;5148395;27;20494;-70
2023/04/18 07:09:03;;;;;;;9.75;6.65;;;;;;;8.55;68.90;102532.09;5146559;27;20474;-69
2023/04/18 07:11:30;;;;;;;8.68;6.78;;;;;;;8.65;68.55;102535.63;5130370;27;20046;-69
2023/04/18 07:13:57;;;;;;;10.73;6.85;;;;;;;8.80;68.05;102533.09;5137545;27;20040;-70
2023/04/18 07:16:24;;;;;;;9.13;6.93;;;;;;;8.98;67.75;102534.91;5147273;27;20069;-69
2023/04/18 07:18:51;;;;;;;9.25;6.45;;;;;;;9.28;67.35;102527.97;5129907;27;20046;-70
2023/04/18 07:21:18;;;;;;;9.70;6.65;;;;;;;9.52;66.12;102533.28;5122610;27;20039;-70
2023/04/18 07:23:45;;;;;;;10.02;6.20;;;;;;;9.70;65.95;102541.19;5138928;27;20150;-70
2023/04/18 07:26:12;;;;;;;8.65;6.00;;;;;;;9.87;64.84;102546.47;5131620;27;20040;-69
2023/04/18 07:28:39;;;;;;;8.88;5.82;;;;;;;10.08;64.53;102542.91;5133003;27;20567;-70
2023/04/18 07:31:10;;;;;;;7.90;6.10;;;;;;;10.25;64.12;102537.63;5148772;27;20043;-70
2023/04/18 07:33:37;;;;;;;8.43;5.90;;;;;;;10.48;63.05;102544.66;5129659;27;20039;-70
2023/04/18 07:36:05;;;;;;;6.88;5.25;;;;;;;10.62;62.97;102541.09;5124797;27;20039;-70
2023/04/18 07:38:34;;;;;;;7.57;5.93;;;;;;;10.73;62.15;102523.47;5134689;27;20039;-70
2023/04/18 07:41:02;;;;;;;9.98;6.20;;;;;;;10.69;62.13;102556.88;5137375;27;20759;-69
2023/04/18 07:43:29;;;;;;;6.30;5.50;;;;;;;10.62;62.91;102546.38;5142267;27;20039;-69
2023/04/18 07:45:56;;;;;;;7.20;5.50;;;;;;;10.56;63.07;102544.63;5109540;27;20032;-69
2023/04/18 07:48:26;;;;;;;7.35;5.80;;;;;;;10.52;63.10;102549.03;5144975;27;20066;-69
2023/04/18 07:50:54;;;;;;;7.18;5.32;;;;;;;10.45;63.23;102557.81;5127541;27;20133;-69
2023/04/18 07:53:21;;;;;;;8.50;5.80;;;;;;;10.31;63.53;102554.31;5117852;27;20042;-69
2023/04/18 07:55:49;;;;;;;7.07;5.57;;;;;;;10.26;63.90;102562.25;5131944;27;20120;-69
2023/04/18 07:58:16;;;;;;;7.75;5.72;;;;;;;10.48;63.59;102549.91;5136066;27;20075;-69
2023/04/18 08:00:43;;;;;;;10.65;6.28;;;;;;;10.65;63.61;102548.97;5128123;27;20533;-69
2023/04/18 08:03:11;;;;;;;7.00;5.82;;;;;;;10.68;63.47;102547.22;5133406;27;20044;-69
2023/04/18 08:05:41;;;;;;;8.73;6.15;;;;;;;10.75;61.98;102555.97;5148615;27;20039;-69
2023/04/18 08:08:10;;;;;;;9.15;5.70;;;;;;;10.75;61.58;102558.63;5130582;27;20040;-69
2023/04/18 08:10:38;;;;;;;7.38;5.80;;;;;;;10.72;61.69;102548.09;5129884;27;20043;-69
2023/04/18 08:13:05;;;;;;;7.13;5.68;;;;;;;10.84;61.02;102555.06;5137142;27;20537;-70
2023/04/18 08:15:33;;;;;;;7.03;5.78;;;;;;;10.88;60.92;102554.19;5137208;27;20495;-70
2023/04/18 08:18:00;;;;;;;8.48;5.22;;;;;;;10.90;60.47;102557.69;5151661;27;20032;-70
2023/04/18 08:20:28;;;;;;;6.07;5.18;;;;;;;10.89;60.84;102553.28;5151474;27;20546;-70
2023/04/18 08:22:55;;;;;;;7.35;5.45;;;;;;;10.97;61.22;102558.53;5151777;27;20482;-70
2023/04/18 08:25:25;;;;;;;7.03;5.47;;;;;;;11.05;60.25;102553.22;5110910;27;20740;-69
2023/04/18 08:27:52;;;;;;;6.30;5.10;;;;;;;11.12;60.10;102557.59;5142742;27;20101;-70
2023/04/18 08:30:19;;;;;;;8.98;5.28;;;;;;;11.11;60.12;102564.63;5144202;27;20035;-70
2023/04/18 08:32:46;;;;;;;8.25;5.22;;;;;;;11.14;59.97;102569.88;5150027;27;20089;-70
2023/04/18 08:35:13;;;;;;;6.97;5.00;;;;;;;11.15;59.18;102562.84;5139485;27;20031;-69
2023/04/18 08:37:40;;;;;;;8.80;5.55;;;;;;;11.17;59.46;102559.31;5138683;27;20534;-70
2023/04/18 08:40:08;;;;;;;7.30;5.43;;;;;;;11.32;59.20;102558.34;5112152;27;20130;-69
2023/04/18 08:42:37;;;;;;;8.43;5.25;;;;;;;11.51;59.22;102558.22;5121023;27;20040;-70
2023/04/18 08:45:05;;;;;;;7.47;5.15;;;;;;;11.71;59.02;102559.84;5148375;27;20135;-68
2023/04/18 08:47:34;;;;;;;6.32;5.00;;;;;;;11.93;58.10;102563.22;5133357;27;20043;-70
2023/04/18 08:50:02;;;;;;;6.55;4.05;;;;;;;12.04;57.04;102565.78;5150394;27;20043;-69
2023/04/18 08:52:30;;;;;;;5.70;4.32;;;;;;;11.83;57.64;102569.47;5145921;27;20038;-69
2023/04/18 08:54:57;;;;;;;6.13;4.88;;;;;;;11.69;58.25;102569.56;5136066;27;20521;-70
2023/04/18 08:57:28;;;;;;;5.50;4.25;;;;;;;11.61;59.11;102561.69;5128173;27;20043;-69
2023/04/18 08:59:59;;;;;;;5.65;4.75;;;;;;;11.65;59.30;102569.59;5149396;27;20607;-69
2023/04/18 09:02:45;;;;;;;5.10;4.60;;;;;;;11.73;59.33;102574.81;5130281;27;20142;-70
2023/04/18 09:05:18;;;;;;;8.38;4.90;;;;;;;11.79;58.55;102569.47;5132411;27;20031;-71
2023/04/18 09:07:48;;;;;;;6.15;4.80;;;;;;;11.76;57.79;102572.13;5150159;27;20086;-70
2023/04/18 09:10:33;;;;;;;6.85;4.80;;;;;;;11.62;58.09;102571.38;5145695;27;20055;-69
2023/04/18 09:13:02;;;;;;;6.53;4.75;;;;;;;11.56;58.38;102571.41;5141945;27;20956;-69
2023/04/18 09:15:30;;;;;;;7.53;4.53;;;;;;;11.51;58.80;102574.06;5112665;27;20068;-69
2023/04/18 09:18:01;;;;;;;6.68;4.63;;;;;;;11.56;58.77;102572.28;5150762;27;20526;-69
2023/04/18 09:20:34;;;;;;;5.93;4.47;;;;;;;11.56;59.02;102572.28;5119994;27;20032;-69
2023/04/18 09:23:13;;;;;;;8.45;4.95;;;;;;;11.50;58.75;102581.13;5147529;27;20130;-70
2023/04/18 09:25:40;;;;;;;6.82;4.78;;;;;;;11.45;58.92;102582.03;5115970;27;20057;-71
2023/04/18 09:28:29;;;;;;;8.00;4.82;;;;;;;11.45;59.47;102579.41;5117525;27;20579;-70
2023/04/18 09:31:16;;;;;;;6.47;5.22;;;;;;;11.51;59.66;102576.72;5148165;27;20070;-69
2023/04/18 09:33:55;;;;;;;6.60;5.18;;;;;;;11.61;59.59;102578.41;5131724;27;20047;-69
2023/04/18 09:36:29;;;;;;;6.65;5.20;;;;;;;11.70;58.86;102579.25;5130598;27;20031;-69
2023/04/18 09:38:57;;;;;;;5.90;4.93;;;;;;;11.75;57.78;102574.78;5098707;27;20565;-70
2023/04/18 09:41:24;;;;;;;8.15;5.40;;;;;;;11.73;58.30;102571.28;5133283;27;20609;-70
2023/04/18 09:44:15;;;;;;;9.02;5.18;;;;;;;11.69;58.52;102569.56;5144219;27;21507;-70
2023/04/18 09:46:45;;;;;;;6.10;4.57;;;;;;;11.75;58.27;102572.16;5110721;27;20073;-70
2023/04/18 09:49:14;;;;;;;9.07;5.57;;;;;;;11.81;58.39;102570.34;5129829;27;20097;-70
2023/04/18 09:51:43;;;;;;;5.75;4.70;;;;;;;11.98;57.96;102561.41;5128773;27;20114;-70
2023/04/18 09:54:15;;;;;;;6.28;4.63;;;;;;;12.07;57.49;102561.34;5096618;27;20043;-70
2023/04/18 09:56:49;;;;;;;6.95;5.10;;;;;;;12.15;57.10;102566.56;5129079;27;20089;-70
2023/04/18 09:59:39;;;;;;;7.28;5.05;;;;;;;12.34;56.88;102564.63;5137110;27;20101;-70
2023/04/18 10:02:18;;;;;;;5.22;4.72;;;;;;;12.53;56.65;102554.69;5130319;27;20819;-69
2023/04/18 10:04:47;;;;;;;5.75;4.25;;;;;;;12.64;56.52;102554.59;5128358;27;20543;-69
2023/04/18 10:07:16;;;;;;;6.72;4.82;;;;;;;12.78;55.83;102549.13;5128686;27;20032;-69
2023/04/18 10:09:48;;;;;;;6.97;4.55;;;;;;;12.90;55.82;102556.03;5128247;27;20040;-69
2023/04/18 10:12:17;;;;;;;7.63;4.90;;;;;;;13.04;55.03;102551.44;5120239;27;20047;-70
2023/04/18 10:14:44;;;;;;;5.90;4.63;;;;;;;13.20;54.79;102538.88;5145152;27;20610;-70
2023/04/18 10:17:13;;;;;;;6.05;4.60;;;;;;;13.41;55.01;102546.53;5130838;27;20063;-69
2023/04/18 10:19:43;;;;;;;5.68;4.50;;;;;;;13.60;54.13;102548.00;5137867;27;20043;-70
2023/04/18 10:22:11;;;;;;;5.43;3.78;;;;;;;13.73;53.09;102550.47;5149071;27;20035;-69
2023/04/18 10:24:48;;;;;;;4.25;3.70;;;;;;;13.59;52.87;102553.34;5148425;27;20046;-69
2023/04/18 10:27:17;;;;;;;4.95;3.38;;;;;;;13.38;53.25;102555.38;5145469;27;20035;-69
2023/04/18 10:29:50;;;;;;;5.57;4.30;;;;;;;13.14;53.76;102568.06;5144620;27;20043;-70
2023/04/18 10:32:22;;;;;;;6.28;4.35;;;;;;;12.84;54.64;102553.47;5130414;27;20039;-69
2023/04/18 10:34:52;;;;;;;5.85;3.92;;;;;;;12.61;55.07;102557.28;5136084;27;20556;-69
2023/04/18 10:37:19;;;;;;;6.50;5.00;;;;;;;12.39;55.46;102557.50;5128081;27;20502;-69
2023/04/18 10:40:09;;;;;;;6.63;4.80;;;;;;;12.22;56.61;102567.38;5127315;27;20538;-69
2023/04/18 10:42:45;;;;;;;6.07;4.70;;;;;;;12.05;57.13;102567.53;5128241;27;20039;-69
2023/04/18 10:45:24;;;;;;;5.05;4.30;;;;;;;11.84;58.21;102561.50;5146640;27;20035;-69
2023/04/18 10:48:31;;;;;;;7.10;4.93;;;;;;;11.75;58.90;102565.09;5125051;27;20123;-69
2023/04/18 10:51:17;;;;;;;6.00;4.40;;;;;;;11.68;58.97;102558.09;5148567;27;20067;-69
2023/04/18 10:53:56;;;;;;;6.28;5.03;;;;;;;11.55;60.42;102564.38;5131030;27;20035;-69
2023/04/18 10:56:24;;;;;;;7.57;4.85;;;;;;;11.51;60.73;102568.78;5128774;27;20035;-69
2023/04/18 10:58:52;;;;;;;6.85;5.10;;;;;;;11.65;60.12;102558.13;5122076;27;20098;-69
2023/04/18 11:01:31;;;;;;;7.00;5.03;;;;;;;11.80;59.80;102550.09;5109482;27;20094;-69
2023/04/18 11:03:59;;;;;;;8.68;5.68;;;;;;;11.85;59.62;102544.75;5134591;27;20036;-70
2023/04/18 11:06:27;;;;;;;7.10;5.43;;;;;;;12.06;59.39;102549.00;5127779;27;20086;-69
2023/04/18 11:09:12;;;;;;;7.03;5.80;;;;;;;12.21;58.41;102557.69;5109740;27;20040;-69
2023/04/18 11:11:40;;;;;;;7.63;5.68;;;;;;;12.22;58.25;102549.75;5126398;27;20044;-69
2023/04/18 11:14:07;;;;;;;7.45;5.70;;;;;;;12.15;58.94;102552.47;5136200;27;20478;-69
2023/04/18 11:16:35;;;;;;;7.25;5.97;;;;;;;12.16;59.32;102551.59;5131890;27;20174;-69
2023/04/18 11:19:22;;;;;;;10.75;5.75;;;;;;;12.11;59.16;102544.56;5147510;27;20518;-69
2023/04/18 11:21:50;;;;;;;8.45;5.50;;;;;;;12.02;59.58;102542.00;5148306;27;20040;-69
2023/04/18 11:24:22;;;;;;;8.90;5.65;;;;;;;11.91;60.16;102546.47;5135459;27;20147;-70
2023/04/18 11:26:54;;;;;;;7.50;5.95;;;;;;;11.80;60.23;102539.53;5137613;27;20071;-69
2023/04/18 11:29:21;;;;;;;8.23;5.90;;;;;;;11.71;60.67;102544.88;5124824;27;20035;-69
2023/04/18 11:31:52;;;;;;;8.40;6.07;;;;;;;11.82;60.40;102547.44;5128121;27;20047;-69
2023/04/18 11:34:29;;;;;;;7.78;6.10;;;;;;;12.02;60.35;102549.94;5131237;27;20063;-69
2023/04/18 11:36:57;;;;;;;9.20;6.82;;;;;;;12.19;59.94;102540.97;5132922;27;20031;-69
2023/04/18 11:39:24;;;;;;;7.75;5.82;;;;;;;12.49;59.69;102552.13;5133219;27;20036;-69